sensor_id;sensor_type;location;lat;lon;timestamp;pressure;altitude;pressure_sealevel;temperature;humidity
20003;BME280;10162;41.600;23.806;2022-08-25T00:05:17;94964.25;;;18.98;100.00
20003;BME280;10162;41.600;23.806;2022-08-25T00:07:43;94976.06;;;18.91;100.00
20003;BME280;10162;41.600;23.806;2022-08-25T00:14:00;94991.94;;;19.13;100.00
20003;BME280;10162;41.600;23.806;2022-08-25T00:16:27;95015.88;;;18.74;100.00
20003;BME280;10162;41.600;23.806;2022-08-25T00:18:55;94982.84;;;18.33;100.00
20003;BME280;10162;41.600;23.806;2022-08-25T00:25:10;94937.03;;;18.54;100.00
20003;BME280;10162;41.600;23.806;2022-08-25T00:27:37;94941.94;;;18.94;100.00
20003;BME280;10162;41.600;23.806;2022-08-25T00:33:51;94939.22;;;18.84;100.00
20003;BME280;10162;41.600;23.806;2022-08-25T00:36:18;94930.41;;;18.79;100.00
20003;BME280;10162;41.600;23.806;2022-08-25T00:38:46;94961.19;;;19.12;100.00
20003;BME280;10162;41.600;23.806;2022-08-25T00:45:04;94950.19;;;18.49;100.00
20003;BME280;10162;41.600;23.806;2022-08-25T00:47:31;94935.75;;;18.13;100.00
20003;BME280;10162;41.600;23.806;2022-08-25T00:53:45;94930.00;;;18.65;100.00
20003;BME280;10162;41.600;23.806;2022-08-25T00:56:12;94965.78;;;18.94;100.00
20003;BME280;10162;41.600;23.806;2022-08-25T00:58:39;94941.75;;;18.74;100.00
20003;BME280;10162;41.600;23.806;2022-08-25T01:04:53;94925.00;;;18.47;100.00
20003;BME280;10162;41.600;23.806;2022-08-25T01:07:20;94943.38;;;18.32;100.00
20003;BME280;10162;41.600;23.806;2022-08-25T01:13:48;94939.13;;;18.31;100.00
20003;BME280;10162;41.600;23.806;2022-08-25T01:16:16;94927.72;;;18.30;100.00
20003;BME280;10162;41.600;23.806;2022-08-25T01:18:54;94932.09;;;18.41;100.00
20003;BME280;10162;41.600;23.806;2022-08-25T01:28:03;94938.75;;;18.44;100.00
20003;BME280;10162;41.600;23.806;2022-08-25T01:34:18;94904.38;;;18.22;100.00
20003;BME280;10162;41.600;23.806;2022-08-25T01:36:44;94889.31;;;18.49;100.00
20003;BME280;10162;41.600;23.806;2022-08-25T01:39:12;94902.69;;;18.91;100.00
20003;BME280;10162;41.600;23.806;2022-08-25T01:44:31;94919.25;;;18.77;100.00
20003;BME280;10162;41.600;23.806;2022-08-25T01:46:57;94900.13;;;18.96;100.00
20003;BME280;10162;41.600;23.806;2022-08-25T01:53:17;94916.91;;;19.07;100.00
20003;BME280;10162;41.600;23.806;2022-08-25T01:55:43;94896.16;;;18.99;100.00
20003;BME280;10162;41.600;23.806;2022-08-25T01:58:22;94923.03;;;19.13;100.00
20003;BME280;10162;41.600;23.806;2022-08-25T02:01:19;94933.56;;;18.76;100.00
20003;BME280;10162;41.600;23.806;2022-08-25T02:03:48;94911.19;;;18.62;100.00
20003;BME280;10162;41.600;23.806;2022-08-25T02:06:32;94932.91;;;18.64;100.00
20003;BME280;10162;41.600;23.806;2022-08-25T02:09:02;94930.72;;;18.82;100.00
20003;BME280;10162;41.600;23.806;2022-08-25T02:15:29;94938.00;;;18.70;100.00
20003;BME280;10162;41.600;23.806;2022-08-25T02:17:55;94966.69;;;19.05;100.00
20003;BME280;10162;41.600;23.806;2022-08-25T02:24:09;94957.34;;;19.24;100.00
20003;BME280;10162;41.600;23.806;2022-08-25T02:26:36;94972.28;;;19.09;100.00
20003;BME280;10162;41.600;23.806;2022-08-25T02:29:03;94992.72;;;18.86;100.00
20003;BME280;10162;41.600;23.806;2022-08-25T02:31:39;94960.03;;;18.54;100.00
20003;BME280;10162;41.600;23.806;2022-08-25T02:34:06;94964.81;;;18.74;100.00
20003;BME280;10162;41.600;23.806;2022-08-25T02:36:32;94974.47;;;18.63;100.00
20003;BME280;10162;41.600;23.806;2022-08-25T02:38:58;94982.03;;;19.03;100.00
20003;BME280;10162;41.600;23.806;2022-08-25T02:45:12;94976.44;;;18.99;100.00
20003;BME280;10162;41.600;23.806;2022-08-25T02:47:39;94955.06;;;18.57;100.00
20003;BME280;10162;41.600;23.806;2022-08-25T02:53:52;94950.34;;;18.60;100.00
20003;BME280;10162;41.600;23.806;2022-08-25T02:56:18;94951.28;;;18.53;100.00
20003;BME280;10162;41.600;23.806;2022-08-25T02:58:45;94945.84;;;18.60;100.00
20003;BME280;10162;41.600;23.806;2022-08-25T03:04:58;94933.00;;;18.52;100.00
20003;BME280;10162;41.600;23.806;2022-08-25T03:07:24;94934.59;;;18.53;100.00
20003;BME280;10162;41.600;23.806;2022-08-25T03:09:56;94936.63;;;18.46;100.00
20003;BME280;10162;41.600;23.806;2022-08-25T03:12:22;94947.97;;;18.63;100.00
20003;BME280;10162;41.600;23.806;2022-08-25T03:14:47;94935.25;;;18.38;100.00
20003;BME280;10162;41.600;23.806;2022-08-25T03:17:13;94911.31;;;18.28;100.00
20003;BME280;10162;41.600;23.806;2022-08-25T03:23:26;94925.06;;;18.74;100.00
20003;BME280;10162;41.600;23.806;2022-08-25T03:25:53;94887.75;;;18.53;100.00
20003;BME280;10162;41.600;23.806;2022-08-25T03:28:37;94911.41;;;18.60;100.00
20003;BME280;10162;41.600;23.806;2022-08-25T03:31:23;94909.19;;;18.52;100.00
20003;BME280;10162;41.600;23.806;2022-08-25T03:33:50;94906.47;;;18.47;100.00
20003;BME280;10162;41.600;23.806;2022-08-25T03:36:16;94915.22;;;18.69;100.00
20003;BME280;10162;41.600;23.806;2022-08-25T03:38:42;94905.13;;;18.66;100.00
20003;BME280;10162;41.600;23.806;2022-08-25T03:41:38;94909.00;;;18.58;100.00
20003;BME280;10162;41.600;23.806;2022-08-25T03:44:06;94902.88;;;18.31;100.00
20003;BME280;10162;41.600;23.806;2022-08-25T03:46:42;94888.13;;;18.40;100.00
20003;BME280;10162;41.600;23.806;2022-08-25T03:49:12;94876.88;;;18.50;100.00
20003;BME280;10162;41.600;23.806;2022-08-25T03:51:41;94910.78;;;18.53;100.00
20003;BME280;10162;41.600;23.806;2022-08-25T03:54:09;94879.41;;;18.40;100.00
20003;BME280;10162;41.600;23.806;2022-08-25T03:56:35;94859.31;;;18.17;100.00
20003;BME280;10162;41.600;23.806;2022-08-25T03:59:02;94890.31;;;18.43;100.00
20003;BME280;10162;41.600;23.806;2022-08-25T04:01:59;94899.28;;;18.64;100.00
20003;BME280;10162;41.600;23.806;2022-08-25T04:04:26;94857.00;;;18.47;100.00
20003;BME280;10162;41.600;23.806;2022-08-25T04:06:51;94895.50;;;18.87;100.00
20003;BME280;10162;41.600;23.806;2022-08-25T04:09:17;94872.69;;;18.81;100.00
20003;BME280;10162;41.600;23.806;2022-08-25T04:11:43;94881.25;;;18.93;100.00
20003;BME280;10162;41.600;23.806;2022-08-25T04:14:09;94873.28;;;18.88;100.00
20003;BME280;10162;41.600;23.806;2022-08-25T04:16:35;94877.19;;;18.80;100.00
20003;BME280;10162;41.600;23.806;2022-08-25T04:19:03;94888.97;;;18.94;100.00
20003;BME280;10162;41.600;23.806;2022-08-25T04:24:45;94891.91;;;18.98;100.00
20003;BME280;10162;41.600;23.806;2022-08-25T04:27:11;94869.28;;;18.85;100.00
20003;BME280;10162;41.600;23.806;2022-08-25T04:33:23;94885.09;;;19.07;100.00
20003;BME280;10162;41.600;23.806;2022-08-25T04:35:49;94900.53;;;19.15;100.00
20003;BME280;10162;41.600;23.806;2022-08-25T04:38:15;94901.16;;;19.27;100.00
20003;BME280;10162;41.600;23.806;2022-08-25T04:41:18;94900.66;;;18.98;100.00
20003;BME280;10162;41.600;23.806;2022-08-25T04:43:45;94887.88;;;18.90;100.00
20003;BME280;10162;41.600;23.806;2022-08-25T04:46:14;94880.31;;;18.72;100.00
20003;BME280;10162;41.600;23.806;2022-08-25T04:48:40;94866.81;;;18.74;100.00
20003;BME280;10162;41.600;23.806;2022-08-25T04:54:53;94891.66;;;19.36;100.00
20003;BME280;10162;41.600;23.806;2022-08-25T04:57:19;94869.28;;;19.54;100.00
20003;BME280;10162;41.600;23.806;2022-08-25T05:00:03;94866.50;;;19.76;100.00
20003;BME280;10162;41.600;23.806;2022-08-25T05:02:29;94876.34;;;19.86;100.00
20003;BME280;10162;41.600;23.806;2022-08-25T05:04:54;94867.50;;;19.65;100.00
20003;BME280;10162;41.600;23.806;2022-08-25T05:07:20;94862.75;;;19.72;100.00
20003;BME280;10162;41.600;23.806;2022-08-25T05:09:57;94879.66;;;19.61;100.00
20003;BME280;10162;41.600;23.806;2022-08-25T05:12:23;94867.03;;;19.36;100.00
20003;BME280;10162;41.600;23.806;2022-08-25T05:14:51;94849.81;;;19.38;100.00
20003;BME280;10162;41.600;23.806;2022-08-25T05:17:18;94844.47;;;19.33;100.00
20003;BME280;10162;41.600;23.806;2022-08-25T05:19:47;94837.03;;;19.72;100.00
20003;BME280;10162;41.600;23.806;2022-08-25T05:22:12;94825.00;;;19.60;100.00
20003;BME280;10162;41.600;23.806;2022-08-25T05:24:38;94846.41;;;20.00;100.00
20003;BME280;10162;41.600;23.806;2022-08-25T05:27:04;94815.47;;;20.26;100.00
20003;BME280;10162;41.600;23.806;2022-08-25T05:29:34;94821.38;;;20.43;100.00
20003;BME280;10162;41.600;23.806;2022-08-25T05:32:00;94827.47;;;20.54;100.00
20003;BME280;10162;41.600;23.806;2022-08-25T05:34:26;94828.84;;;20.61;100.00
20003;BME280;10162;41.600;23.806;2022-08-25T05:36:51;94826.97;;;20.72;100.00
20003;BME280;10162;41.600;23.806;2022-08-25T05:39:17;94845.84;;;21.11;100.00
20003;BME280;10162;41.600;23.806;2022-08-25T05:41:43;94821.13;;;20.95;100.00
20003;BME280;10162;41.600;23.806;2022-08-25T05:44:09;94836.28;;;21.25;100.00
20003;BME280;10162;41.600;23.806;2022-08-25T05:46:36;94830.69;;;21.27;100.00
20003;BME280;10162;41.600;23.806;2022-08-25T05:49:02;94851.41;;;21.10;100.00
20003;BME280;10162;41.600;23.806;2022-08-25T05:51:30;94828.81;;;21.02;100.00
20003;BME280;10162;41.600;23.806;2022-08-25T05:53:56;94842.41;;;21.00;100.00
20003;BME280;10162;41.600;23.806;2022-08-25T05:56:22;94845.59;;;21.23;100.00
20003;BME280;10162;41.600;23.806;2022-08-25T05:58:48;94853.53;;;21.48;100.00
20003;BME280;10162;41.600;23.806;2022-08-25T06:01:31;94846.84;;;21.61;100.00
20003;BME280;10162;41.600;23.806;2022-08-25T06:04:15;94848.41;;;21.77;100.00
20003;BME280;10162;41.600;23.806;2022-08-25T06:06:42;94844.88;;;22.07;100.00
20003;BME280;10162;41.600;23.806;2022-08-25T06:09:09;94839.47;;;22.22;100.00
20003;BME280;10162;41.600;23.806;2022-08-25T06:11:38;94847.50;;;22.66;100.00
20003;BME280;10162;41.600;23.806;2022-08-25T06:14:05;94835.94;;;22.81;100.00
20003;BME280;10162;41.600;23.806;2022-08-25T06:16:31;94838.38;;;22.28;100.00
20003;BME280;10162;41.600;23.806;2022-08-25T06:18:57;94850.38;;;22.75;100.00
20003;BME280;10162;41.600;23.806;2022-08-25T06:21:24;94819.69;;;22.38;100.00
20003;BME280;10162;41.600;23.806;2022-08-25T06:23:50;94837.63;;;22.61;100.00
20003;BME280;10162;41.600;23.806;2022-08-25T06:26:16;94832.06;;;22.58;100.00
20003;BME280;10162;41.600;23.806;2022-08-25T06:28:41;94841.16;;;22.96;100.00
20003;BME280;10162;41.600;23.806;2022-08-25T06:31:35;94845.97;;;22.94;100.00
20003;BME280;10162;41.600;23.806;2022-08-25T06:34:01;94823.22;;;22.67;100.00
20003;BME280;10162;41.600;23.806;2022-08-25T06:36:26;94848.84;;;23.31;100.00
20003;BME280;10162;41.600;23.806;2022-08-25T06:38:52;94852.56;;;23.64;100.00
20003;BME280;10162;41.600;23.806;2022-08-25T06:44:24;94840.81;;;23.89;91.83
20003;BME280;10162;41.600;23.806;2022-08-25T06:46:52;94848.03;;;24.36;97.68
20003;BME280;10162;41.600;23.806;2022-08-25T06:49:20;94827.66;;;23.45;99.89
20003;BME280;10162;41.600;23.806;2022-08-25T06:51:46;94847.13;;;24.22;95.89
20003;BME280;10162;41.600;23.806;2022-08-25T06:54:12;94847.53;;;24.53;94.82
20003;BME280;10162;41.600;23.806;2022-08-25T06:56:39;94843.63;;;24.64;98.33
20003;BME280;10162;41.600;23.806;2022-08-25T06:59:06;94841.75;;;24.83;95.89
20003;BME280;10162;41.600;23.806;2022-08-25T07:02:01;94836.69;;;24.82;92.54
20003;BME280;10162;41.600;23.806;2022-08-25T07:04:27;94824.66;;;25.17;89.85
20003;BME280;10162;41.600;23.806;2022-08-25T07:06:53;94812.56;;;25.19;90.76
20003;BME280;10162;41.600;23.806;2022-08-25T07:09:19;94793.69;;;25.43;85.00
20003;BME280;10162;41.600;23.806;2022-08-25T07:11:45;94822.00;;;25.76;80.12
20003;BME280;10162;41.600;23.806;2022-08-25T07:14:13;94818.47;;;25.48;83.96
20003;BME280;10162;41.600;23.806;2022-08-25T07:16:39;94817.16;;;25.32;80.71
20003;BME280;10162;41.600;23.806;2022-08-25T07:19:05;94823.81;;;25.48;80.28
20003;BME280;10162;41.600;23.806;2022-08-25T07:21:37;94797.56;;;24.86;79.23
20003;BME280;10162;41.600;23.806;2022-08-25T07:24:10;94809.06;;;25.51;81.20
20003;BME280;10162;41.600;23.806;2022-08-25T07:26:38;94818.22;;;26.18;74.76
20003;BME280;10162;41.600;23.806;2022-08-25T07:29:14;94806.53;;;25.87;78.63
20003;BME280;10162;41.600;23.806;2022-08-25T07:31:40;94799.38;;;25.96;77.35
20003;BME280;10162;41.600;23.806;2022-08-25T07:34:06;94786.25;;;25.53;75.72
20003;BME280;10162;41.600;23.806;2022-08-25T07:36:51;94808.19;;;26.10;75.69
20003;BME280;10162;41.600;23.806;2022-08-25T07:39:16;94797.88;;;26.17;71.56
20003;BME280;10162;41.600;23.806;2022-08-25T07:41:42;94786.16;;;26.41;71.24
20003;BME280;10162;41.600;23.806;2022-08-25T07:44:10;94806.59;;;26.72;71.73
20003;BME280;10162;41.600;23.806;2022-08-25T07:46:37;94799.56;;;26.63;72.77
20003;BME280;10162;41.600;23.806;2022-08-25T07:49:03;94780.72;;;26.18;71.55
20003;BME280;10162;41.600;23.806;2022-08-25T07:54:56;94806.69;;;26.31;68.25
20003;BME280;10162;41.600;23.806;2022-08-25T07:57:22;94799.97;;;26.70;67.76
20003;BME280;10162;41.600;23.806;2022-08-25T07:59:51;94812.19;;;26.98;69.81
20003;BME280;10162;41.600;23.806;2022-08-25T08:02:17;94827.81;;;27.72;68.89
20003;BME280;10162;41.600;23.806;2022-08-25T08:04:43;94803.47;;;27.46;68.33
20003;BME280;10162;41.600;23.806;2022-08-25T08:07:10;94796.47;;;26.69;71.72
20003;BME280;10162;41.600;23.806;2022-08-25T08:09:41;94785.50;;;26.93;67.67
20003;BME280;10162;41.600;23.806;2022-08-25T08:12:07;94802.13;;;27.35;68.21
20003;BME280;10162;41.600;23.806;2022-08-25T08:14:33;94816.34;;;27.35;65.09
20003;BME280;10162;41.600;23.806;2022-08-25T08:17:04;94790.00;;;26.48;66.48
20003;BME280;10162;41.600;23.806;2022-08-25T08:23:18;94801.81;;;27.28;66.08
20003;BME280;10162;41.600;23.806;2022-08-25T08:25:45;94808.75;;;27.06;66.81
20003;BME280;10162;41.600;23.806;2022-08-25T08:28:10;94808.97;;;27.10;68.25
20003;BME280;10162;41.600;23.806;2022-08-25T08:34:30;94811.81;;;27.67;62.48
20003;BME280;10162;41.600;23.806;2022-08-25T08:36:56;94805.31;;;27.59;62.12
20003;BME280;10162;41.600;23.806;2022-08-25T08:39:22;94798.56;;;26.95;61.07
20003;BME280;10162;41.600;23.806;2022-08-25T08:47:24;94808.50;;;27.39;62.27
20003;BME280;10162;41.600;23.806;2022-08-25T08:56:30;94793.63;;;28.12;57.97
20003;BME280;10162;41.600;23.806;2022-08-25T08:59:00;94807.00;;;28.34;55.21
20003;BME280;10162;41.600;23.806;2022-08-25T09:05:17;94788.16;;;28.43;55.98
20003;BME280;10162;41.600;23.806;2022-08-25T09:07:53;94786.22;;;26.71;57.74
20003;BME280;10162;41.600;23.806;2022-08-25T09:14:18;94786.94;;;27.92;55.15
20003;BME280;10162;41.600;23.806;2022-08-25T09:17:01;94775.38;;;27.83;57.35
20003;BME280;10162;41.600;23.806;2022-08-25T09:29:11;94779.31;;;28.51;52.91
20003;BME280;10162;41.600;23.806;2022-08-25T09:31:40;94779.97;;;28.65;55.77
20003;BME280;10162;41.600;23.806;2022-08-25T09:34:22;94769.53;;;28.89;53.61
20003;BME280;10162;41.600;23.806;2022-08-25T09:36:49;94755.91;;;28.77;56.21
20003;BME280;10162;41.600;23.806;2022-08-25T09:39:18;94763.69;;;27.87;53.67
20003;BME280;10162;41.600;23.806;2022-08-25T09:41:51;94769.50;;;28.38;54.86
20003;BME280;10162;41.600;23.806;2022-08-25T09:44:32;94770.94;;;28.69;52.49
20003;BME280;10162;41.600;23.806;2022-08-25T09:47:02;94764.09;;;28.20;55.87
20003;BME280;10162;41.600;23.806;2022-08-25T09:49:43;94746.28;;;28.42;53.85
20003;BME280;10162;41.600;23.806;2022-08-25T09:54:59;94763.47;;;28.15;54.96
20003;BME280;10162;41.600;23.806;2022-08-25T09:57:44;94752.88;;;28.18;56.11
20003;BME280;10162;41.600;23.806;2022-08-25T10:04:03;94749.88;;;27.32;55.14
20003;BME280;10162;41.600;23.806;2022-08-25T10:06:34;94746.25;;;27.37;53.75
20003;BME280;10162;41.600;23.806;2022-08-25T10:09:06;94756.06;;;27.72;53.46
20003;BME280;10162;41.600;23.806;2022-08-25T10:15:24;94745.38;;;29.74;48.16
20003;BME280;10162;41.600;23.806;2022-08-25T10:17:50;94737.03;;;29.20;49.02
20003;BME280;10162;41.600;23.806;2022-08-25T10:24:04;94727.84;;;28.09;49.96
20003;BME280;10162;41.600;23.806;2022-08-25T10:31:56;94742.59;;;27.64;48.76
20003;BME280;10162;41.600;23.806;2022-08-25T10:34:36;94745.94;;;28.52;48.25
20003;BME280;10162;41.600;23.806;2022-08-25T10:56:33;94717.56;;;27.94;46.53
20003;BME280;10162;41.600;23.806;2022-08-25T11:05:13;94713.34;;;27.53;47.40
20003;BME280;10162;41.600;23.806;2022-08-25T11:07:46;94711.47;;;28.19;46.06
20003;BME280;10162;41.600;23.806;2022-08-25T11:14:31;94705.13;;;28.24;46.91
20003;BME280;10162;41.600;23.806;2022-08-25T11:26:36;94700.13;;;29.12;42.62
20003;BME280;10162;41.600;23.806;2022-08-25T11:32:54;94712.41;;;28.41;42.38
20003;BME280;10162;41.600;23.806;2022-08-25T11:45:21;94691.03;;;28.79;46.51
20003;BME280;10162;41.600;23.806;2022-08-25T11:48:17;94673.66;;;28.76;44.85
20003;BME280;10162;41.600;23.806;2022-08-25T11:54:36;94686.75;;;28.77;44.50
20003;BME280;10162;41.600;23.806;2022-08-25T11:57:23;94673.94;;;28.06;45.48
20003;BME280;10162;41.600;23.806;2022-08-25T12:06:28;94673.22;;;29.12;43.83
20003;BME280;10162;41.600;23.806;2022-08-25T12:17:44;94668.03;;;31.11;38.08
20003;BME280;10162;41.600;23.806;2022-08-25T12:24:05;94677.00;;;31.03;39.29
20003;BME280;10162;41.600;23.806;2022-08-25T12:37:16;94656.06;;;28.10;40.55
20003;BME280;10162;41.600;23.806;2022-08-25T12:43:33;94651.78;;;28.60;42.66
20003;BME280;10162;41.600;23.806;2022-08-25T12:52:04;94653.06;;;28.54;41.72
20003;BME280;10162;41.600;23.806;2022-08-25T12:54:54;94667.44;;;28.67;43.89
20003;BME280;10162;41.600;23.806;2022-08-25T12:57:43;94663.53;;;28.47;44.21
20003;BME280;10162;41.600;23.806;2022-08-25T13:07:46;94663.97;;;28.66;41.82
20003;BME280;10162;41.600;23.806;2022-08-25T13:13:44;94659.34;;;28.93;42.72
20003;BME280;10162;41.600;23.806;2022-08-25T13:16:31;94650.84;;;28.56;43.42
20003;BME280;10162;41.600;23.806;2022-08-25T13:19:03;94659.75;;;28.40;43.42
20003;BME280;10162;41.600;23.806;2022-08-25T13:25:18;94649.00;;;28.22;42.87
20003;BME280;10162;41.600;23.806;2022-08-25T13:27:57;94638.81;;;29.26;42.14
20003;BME280;10162;41.600;23.806;2022-08-25T13:30:29;94646.84;;;29.64;39.98
20003;BME280;10162;41.600;23.806;2022-08-25T13:32:56;94663.41;;;29.83;39.85
20003;BME280;10162;41.600;23.806;2022-08-25T13:35:28;94616.44;;;28.96;42.56
20003;BME280;10162;41.600;23.806;2022-08-25T13:38:17;94665.84;;;28.92;42.29
20003;BME280;10162;41.600;23.806;2022-08-25T13:40:44;94645.97;;;29.13;41.26
20003;BME280;10162;41.600;23.806;2022-08-25T13:43:12;94658.56;;;29.39;40.51
20003;BME280;10162;41.600;23.806;2022-08-25T13:45:44;94646.56;;;29.86;40.53
20003;BME280;10162;41.600;23.806;2022-08-25T13:48:13;94665.56;;;29.23;40.75
20003;BME280;10162;41.600;23.806;2022-08-25T13:50:42;94654.31;;;29.38;40.12
20003;BME280;10162;41.600;23.806;2022-08-25T13:53:22;94641.63;;;28.83;42.69
20003;BME280;10162;41.600;23.806;2022-08-25T13:55:51;94637.78;;;29.01;42.73
20003;BME280;10162;41.600;23.806;2022-08-25T13:58:52;94653.97;;;28.93;43.63
20003;BME280;10162;41.600;23.806;2022-08-25T14:01:24;94649.44;;;28.76;42.23
20003;BME280;10162;41.600;23.806;2022-08-25T14:03:53;94645.44;;;28.82;42.43
20003;BME280;10162;41.600;23.806;2022-08-25T14:06:24;94653.25;;;30.10;41.38
20003;BME280;10162;41.600;23.806;2022-08-25T14:11:43;94647.31;;;28.90;42.61
20003;BME280;10162;41.600;23.806;2022-08-25T14:16:57;94623.78;;;28.61;43.82
20003;BME280;10162;41.600;23.806;2022-08-25T14:19:24;94628.41;;;28.52;45.01
20003;BME280;10162;41.600;23.806;2022-08-25T14:21:51;94628.88;;;28.37;45.00
20003;BME280;10162;41.600;23.806;2022-08-25T14:24:21;94642.59;;;28.87;44.25
20003;BME280;10162;41.600;23.806;2022-08-25T14:26:48;94630.88;;;28.83;44.66
20003;BME280;10162;41.600;23.806;2022-08-25T14:29:15;94626.72;;;28.94;44.85
20003;BME280;10162;41.600;23.806;2022-08-25T14:31:43;94622.53;;;28.59;44.76
20003;BME280;10162;41.600;23.806;2022-08-25T14:34:16;94610.25;;;28.06;45.30
20003;BME280;10162;41.600;23.806;2022-08-25T14:36:43;94603.22;;;28.57;45.15
20003;BME280;10162;41.600;23.806;2022-08-25T14:39:10;94598.75;;;28.87;43.93
20003;BME280;10162;41.600;23.806;2022-08-25T14:41:37;94599.78;;;29.41;42.60
20003;BME280;10162;41.600;23.806;2022-08-25T14:44:05;94600.91;;;29.31;43.43
20003;BME280;10162;41.600;23.806;2022-08-25T14:46:34;94608.94;;;29.10;43.43
20003;BME280;10162;41.600;23.806;2022-08-25T14:49:03;94575.16;;;29.51;41.09
20003;BME280;10162;41.600;23.806;2022-08-25T14:51:49;94590.69;;;29.75;41.59
20003;BME280;10162;41.600;23.806;2022-08-25T14:54:15;94589.31;;;30.76;39.63
20003;BME280;10162;41.600;23.806;2022-08-25T14:56:44;94599.19;;;31.66;39.32
20003;BME280;10162;41.600;23.806;2022-08-25T14:59:11;94581.41;;;31.16;38.64
20003;BME280;10162;41.600;23.806;2022-08-25T15:01:37;94558.22;;;31.27;38.56
20003;BME280;10162;41.600;23.806;2022-08-25T15:04:12;94542.13;;;31.18;38.38
20003;BME280;10162;41.600;23.806;2022-08-25T15:06:43;94591.53;;;31.43;38.13
20003;BME280;10162;41.600;23.806;2022-08-25T15:09:13;94566.91;;;31.08;38.88
20003;BME280;10162;41.600;23.806;2022-08-25T15:11:46;94585.13;;;31.60;38.84
20003;BME280;10162;41.600;23.806;2022-08-25T15:14:15;94584.31;;;31.72;39.33
20003;BME280;10162;41.600;23.806;2022-08-25T15:16:50;94587.59;;;32.05;38.76
20003;BME280;10162;41.600;23.806;2022-08-25T15:19:26;94542.09;;;31.55;39.41
20003;BME280;10162;41.600;23.806;2022-08-25T15:21:59;94551.19;;;31.50;40.58
20003;BME280;10162;41.600;23.806;2022-08-25T15:24:26;94548.25;;;31.80;39.27
20003;BME280;10162;41.600;23.806;2022-08-25T15:26:55;94559.88;;;30.83;42.02
20003;BME280;10162;41.600;23.806;2022-08-25T15:29:27;94527.78;;;29.71;45.80
20003;BME280;10162;41.600;23.806;2022-08-25T15:31:55;94569.94;;;29.96;44.42
20003;BME280;10162;41.600;23.806;2022-08-25T15:34:21;94575.81;;;29.69;45.41
20003;BME280;10162;41.600;23.806;2022-08-25T15:36:48;94583.97;;;29.60;44.84
20003;BME280;10162;41.600;23.806;2022-08-25T15:39:14;94561.66;;;30.34;43.16
20003;BME280;10162;41.600;23.806;2022-08-25T15:41:40;94552.31;;;30.76;43.31
20003;BME280;10162;41.600;23.806;2022-08-25T15:44:07;94547.50;;;28.74;48.57
20003;BME280;10162;41.600;23.806;2022-08-25T15:46:36;94574.19;;;28.88;49.54
20003;BME280;10162;41.600;23.806;2022-08-25T15:49:02;94582.50;;;28.74;45.59
20003;BME280;10162;41.600;23.806;2022-08-25T15:51:44;94578.63;;;28.12;47.23
20003;BME280;10162;41.600;23.806;2022-08-25T15:54:10;94577.69;;;28.16;47.65
20003;BME280;10162;41.600;23.806;2022-08-25T15:56:39;94551.44;;;27.87;47.54
20003;BME280;10162;41.600;23.806;2022-08-25T15:59:05;94581.66;;;27.84;46.35
20003;BME280;10162;41.600;23.806;2022-08-25T16:01:40;94589.34;;;27.69;47.16
20003;BME280;10162;41.600;23.806;2022-08-25T16:04:06;94582.84;;;27.44;47.90
20003;BME280;10162;41.600;23.806;2022-08-25T16:06:32;94582.16;;;27.21;47.94
20003;BME280;10162;41.600;23.806;2022-08-25T16:08:59;94605.66;;;27.16;48.48
20003;BME280;10162;41.600;23.806;2022-08-25T16:11:31;94614.31;;;27.12;48.39
20003;BME280;10162;41.600;23.806;2022-08-25T16:14:00;94624.09;;;27.08;48.55
20003;BME280;10162;41.600;23.806;2022-08-25T16:16:28;94624.53;;;26.93;48.81
20003;BME280;10162;41.600;23.806;2022-08-25T16:18:55;94608.00;;;26.78;49.10
20003;BME280;10162;41.600;23.806;2022-08-25T16:21:27;94635.94;;;26.77;50.39
20003;BME280;10162;41.600;23.806;2022-08-25T16:23:57;94622.63;;;26.71;50.08
20003;BME280;10162;41.600;23.806;2022-08-25T16:26:24;94594.19;;;26.31;51.17
20003;BME280;10162;41.600;23.806;2022-08-25T16:28:50;94602.84;;;26.28;51.79
20003;BME280;10162;41.600;23.806;2022-08-25T16:31:33;94612.34;;;26.34;51.52
20003;BME280;10162;41.600;23.806;2022-08-25T16:33:59;94627.25;;;26.49;51.85
20003;BME280;10162;41.600;23.806;2022-08-25T16:36:26;94614.53;;;26.32;51.65
20003;BME280;10162;41.600;23.806;2022-08-25T16:38:52;94601.97;;;26.19;52.27
20003;BME280;10162;41.600;23.806;2022-08-25T16:45:05;94610.84;;;25.83;54.12
20003;BME280;10162;41.600;23.806;2022-08-25T16:47:34;94607.13;;;25.93;53.57
20003;BME280;10162;41.600;23.806;2022-08-25T16:50:22;94637.59;;;25.97;54.92
20003;BME280;10162;41.600;23.806;2022-08-25T16:52:48;94641.16;;;25.92;55.07
20003;BME280;10162;41.600;23.806;2022-08-25T16:55:32;94621.84;;;25.82;54.17
20003;BME280;10162;41.600;23.806;2022-08-25T16:57:58;94640.78;;;25.85;55.42
20003;BME280;10162;41.600;23.806;2022-08-25T17:00:34;94643.31;;;25.68;55.61
20003;BME280;10162;41.600;23.806;2022-08-25T17:03:02;94649.13;;;25.84;56.08
20003;BME280;10162;41.600;23.806;2022-08-25T17:19:31;94603.69;;;25.16;59.41
20003;BME280;10162;41.600;23.806;2022-08-25T17:25:45;94626.00;;;25.11;60.67
20003;BME280;10162;41.600;23.806;2022-08-25T17:28:11;94633.22;;;25.10;60.62
20003;BME280;10162;41.600;23.806;2022-08-25T17:34:24;94629.03;;;24.91;62.73
20003;BME280;10162;41.600;23.806;2022-08-25T17:36:50;94640.56;;;25.05;61.66
20003;BME280;10162;41.600;23.806;2022-08-25T17:39:17;94640.41;;;24.83;64.11
20003;BME280;10162;41.600;23.806;2022-08-25T17:45:31;94647.53;;;24.87;61.96
20003;BME280;10162;41.600;23.806;2022-08-25T17:47:57;94636.34;;;24.85;63.21
20003;BME280;10162;41.600;23.806;2022-08-25T17:54:10;94669.28;;;24.35;70.03